Time;durP1;ratioP1;P1;durP2;ratioP2;P2;SDS_P1;SDS_P2;PMS_P1;PMS_P2;Temp;Humidity;BMP_temperature;BMP_pressure;BME280_temperature;BME280_humidity;BME280_pressure;Samples;Min_cycle;Max_cycle;Signal;HPM_P1;HPM_P2
2023/12/27 00:05:00;;;;;;;21.58;12.80;;;;;;;1.84;100.00;101786.28;10502796;28;20051;-82
2023/12/27 00:10:01;;;;;;;21.30;11.00;;;;;;;1.59;100.00;101779.66;10510977;28;20097;-79
2023/12/27 00:15:02;;;;;;;14.40;9.00;;;;;;;1.38;100.00;101778.44;10503738;27;20130;-79
2023/12/27 00:20:03;;;;;;;11.87;8.23;;;;;;;1.21;100.00;101763.88;10492171;28;20028;-79
2023/12/27 00:25:04;;;;;;;19.90;11.00;;;;;;;1.29;100.00;101774.94;10510902;28;20036;-79
2023/12/27 00:30:05;;;;;;;20.95;8.25;;;;;;;1.31;100.00;101773.41;10508317;28;20040;-79
2023/12/27 00:35:06;;;;;;;15.00;6.50;;;;;;;1.27;100.00;101777.38;10503912;28;20484;-78
2023/12/27 00:40:07;;;;;;;22.83;9.45;;;;;;;1.21;100.00;101768.09;10490520;28;20044;-79
2023/12/27 00:45:08;;;;;;;26.67;12.27;;;;;;;1.41;100.00;101773.56;10483376;28;20131;-79
2023/12/27 00:50:08;;;;;;;23.50;12.50;;;;;;;1.41;100.00;101771.00;10489797;28;20229;-80
2023/12/27 00:55:09;;;;;;;31.80;13.32;;;;;;;1.40;100.00;101781.19;10502072;28;20044;-80
2023/12/27 01:00:10;;;;;;;22.00;14.00;;;;;;;1.39;100.00;101776.78;10511803;28;20127;-80
2023/12/27 01:05:11;;;;;;;40.75;16.80;;;;;;;1.45;100.00;101757.63;10503086;28;20043;-79
2023/12/27 01:10:14;;;;;;;33.22;16.15;;;;;;;1.45;100.00;101755.06;10502232;28;20047;-80
2023/12/27 01:15:14;;;;;;;28.58;16.25;;;;;;;1.50;100.00;101759.75;10507207;28;20036;-79
2023/12/27 01:20:15;;;;;;;25.55;14.77;;;;;;;1.51;100.00;101772.84;10506311;28;20051;-80
2023/12/27 01:25:16;;;;;;;28.65;14.38;;;;;;;1.36;100.00;101759.31;10481425;28;20063;-80
2023/12/27 01:30:26;;;;;;;36.83;16.08;;;;;;;1.25;100.00;101772.81;10509200;28;20048;-79
2023/12/27 01:35:26;;;;;;;31.35;15.25;;;;;;;1.20;100.00;101771.44;10486058;28;20127;-79
2023/12/27 01:40:27;;;;;;;32.90;14.85;;;;;;;1.09;100.00;101765.22;10503796;28;20173;-78
2023/12/27 01:45:27;;;;;;;25.13;14.32;;;;;;;1.10;100.00;101755.06;10503787;28;20044;-79
2023/12/27 01:50:28;;;;;;;28.92;14.65;;;;;;;1.14;100.00;101753.69;10505775;28;20399;-79
2023/12/27 01:55:28;;;;;;;29.75;14.30;;;;;;;1.09;100.00;101748.06;10479800;28;20119;-79
2023/12/27 02:00:29;;;;;;;27.45;14.65;;;;;;;1.21;100.00;101747.47;10484237;28;20111;-79
2023/12/27 02:05:30;;;;;;;23.20;17.60;;;;;;;1.26;100.00;101748.84;10490715;28;20487;-80
2023/12/27 02:10:31;;;;;;;29.87;14.13;;;;;;;1.31;100.00;101747.63;10480664;28;20494;-80
2023/12/27 02:15:31;;;;;;;27.88;17.02;;;;;;;1.39;100.00;101744.13;10495368;28;20124;-80
2023/12/27 02:20:32;;;;;;;25.40;15.07;;;;;;;1.37;100.00;101748.22;10497077;28;20476;-80
2023/12/27 02:25:33;;;;;;;30.83;17.60;;;;;;;1.30;100.00;101732.91;10486702;28;20066;-80
2023/12/27 02:30:36;;;;;;;31.40;15.97;;;;;;;1.33;100.00;101734.91;10490129;28;20083;-80
2023/12/27 02:35:36;;;;;;;30.42;16.65;;;;;;;1.31;100.00;101724.41;10487514;28;20427;-80
2023/12/27 02:40:37;;;;;;;30.50;18.42;;;;;;;1.43;100.00;101712.72;10507342;28;20074;-78
2023/12/27 02:45:37;;;;;;;33.78;18.63;;;;;;;1.37;100.00;101698.31;10502195;28;20526;-80
2023/12/27 02:50:38;;;;;;;32.55;18.95;;;;;;;1.31;100.00;101694.38;10487056;28;20104;-80
2023/12/27 02:55:38;;;;;;;24.10;16.13;;;;;;;1.36;100.00;101697.41;10510086;28;20123;-81
2023/12/27 03:00:39;;;;;;;28.35;15.70;;;;;;;1.42;100.00;101682.53;10497606;28;20059;-79
2023/12/27 03:05:40;;;;;;;34.65;18.20;;;;;;;1.46;100.00;101676.91;10509744;28;20040;-79
2023/12/27 03:10:41;;;;;;;27.37;13.33;;;;;;;1.58;100.00;101669.47;10512653;28;20060;-79
2023/12/27 03:15:41;;;;;;;33.95;15.93;;;;;;;1.61;100.00;101653.34;10477671;28;20039;-79
2023/12/27 03:20:42;;;;;;;26.13;13.18;;;;;;;1.78;100.00;101662.72;10506038;28;20119;-79
2023/12/27 03:25:42;;;;;;;30.70;16.30;;;;;;;1.92;100.00;101660.56;10480402;28;20389;-80
2023/12/27 03:30:43;;;;;;;31.00;14.82;;;;;;;1.98;100.00;101648.22;10497403;28;20082;-79
2023/12/27 03:35:43;;;;;;;26.75;15.88;;;;;;;2.15;100.00;101639.47;10508483;28;20115;-79
2023/12/27 03:40:43;;;;;;;22.50;11.57;;;;;;;2.24;100.00;101634.28;10511063;28;20162;-78
2023/12/27 03:45:45;;;;;;;28.13;15.93;;;;;;;2.29;100.00;101615.84;10443754;28;20041;-79
2023/12/27 03:50:45;;;;;;;29.10;12.48;;;;;;;2.39;100.00;101606.34;10480101;28;20032;-79
2023/12/27 03:55:46;;;;;;;30.05;14.07;;;;;;;2.52;100.00;101604.13;10493751;28;20488;-79
2023/12/27 04:00:46;;;;;;;27.83;11.68;;;;;;;2.64;100.00;101605.25;10508992;28;20040;-79
2023/12/27 04:05:47;;;;;;;18.38;11.00;;;;;;;2.67;100.00;101599.47;10510015;28;20087;-82
2023/12/27 04:10:47;;;;;;;20.67;11.15;;;;;;;2.69;100.00;101595.34;10509241;28;20143;-79
2023/12/27 04:15:48;;;;;;;21.23;11.15;;;;;;;2.67;100.00;101589.13;10508280;28;20128;-79
2023/12/27 04:20:48;;;;;;;21.80;10.38;;;;;;;2.71;100.00;101575.72;10506044;28;20130;-79
2023/12/27 04:25:49;;;;;;;31.45;9.40;;;;;;;2.77;100.00;101570.19;10499695;28;20091;-80
2023/12/27 04:30:49;;;;;;;22.77;8.73;;;;;;;2.85;100.00;101566.59;10501539;28;20113;-80
2023/12/27 04:35:50;;;;;;;32.38;9.55;;;;;;;2.90;100.00;101578.28;10502585;28;20443;-80
2023/12/27 04:40:50;;;;;;;20.60;8.98;;;;;;;2.97;100.00;101569.41;10503674;28;20531;-78
2023/12/27 04:45:51;;;;;;;14.95;7.38;;;;;;;2.99;100.00;101566.94;10481508;28;20045;-77
2023/12/27 04:50:51;;;;;;;16.38;7.80;;;;;;;3.08;100.00;101562.59;10511571;28;20122;-78
2023/12/27 04:55:52;;;;;;;22.83;10.25;;;;;;;3.16;100.00;101548.66;10483226;28;20123;-78
2023/12/27 05:00:52;;;;;;;20.50;8.13;;;;;;;3.22;100.00;101533.66;10445797;28;20481;-78
2023/12/27 05:05:53;;;;;;;16.48;7.90;;;;;;;3.33;100.00;101531.13;10499014;28;20083;-78
2023/12/27 05:10:53;;;;;;;18.65;7.10;;;;;;;3.35;100.00;101538.25;10501127;28;20063;-80
2023/12/27 05:15:54;;;;;;;20.17;6.88;;;;;;;3.42;100.00;101538.78;10498725;28;20446;-78
2023/12/27 05:20:54;;;;;;;12.77;5.03;;;;;;;3.51;100.00;101530.13;10499109;28;20527;-79
2023/12/27 05:25:55;;;;;;;20.35;8.20;;;;;;;3.53;100.00;101518.22;10507636;28;20189;-79
2023/12/27 05:30:55;;;;;;;14.05;7.30;;;;;;;3.56;100.00;101514.09;10469533;28;20384;-78
2023/12/27 05:35:56;;;;;;;13.57;6.43;;;;;;;3.63;100.00;101512.19;10505111;28;20056;-78
2023/12/27 05:40:56;;;;;;;13.43;7.35;;;;;;;3.67;100.00;101518.50;10489394;28;20146;-80
2023/12/27 05:45:58;;;;;;;22.67;8.52;;;;;;;3.62;100.00;101514.63;10496641;28;20123;-79
2023/12/27 05:50:58;;;;;;;11.23;4.68;;;;;;;3.67;100.00;101510.75;10501667;28;20419;-78
2023/12/27 05:55:58;;;;;;;13.82;5.43;;;;;;;3.61;100.00;101507.63;10493029;28;20131;-78
2023/12/27 06:00:59;;;;;;;12.98;7.45;;;;;;;3.58;100.00;101491.84;10474224;28;20531;-78
2023/12/27 06:06:01;;;;;;;11.93;7.93;;;;;;;3.59;100.00;101491.97;10484415;28;20087;-77
2023/12/27 06:11:01;;;;;;;18.88;8.45;;;;;;;3.64;100.00;101480.34;10515495;28;20032;-79
2023/12/27 06:16:02;;;;;;;16.38;8.32;;;;;;;3.67;100.00;101467.66;10465531;28;20071;-78
2023/12/27 06:21:03;;;;;;;22.85;6.47;;;;;;;3.69;100.00;101459.09;10476900;28;20405;-78
2023/12/27 06:26:03;;;;;;;15.68;6.53;;;;;;;3.75;100.00;101464.81;10494937;28;20128;-79
2023/12/27 06:31:04;;;;;;;14.75;8.02;;;;;;;3.78;100.00;101454.72;10479516;28;20036;-79
2023/12/27 06:36:06;;;;;;;20.13;9.00;;;;;;;3.85;100.00;101436.31;10504688;28;20145;-79
2023/12/27 06:41:08;;;;;;;19.92;8.88;;;;;;;3.88;100.00;101430.47;10480723;28;20028;-79
2023/12/27 06:46:08;;;;;;;;;;;;;;;3.91;100.00;101431.66;10493299;28;20036;-78
2023/12/27 06:51:11;;;;;;;15.35;8.05;;;;;;;3.96;100.00;101409.63;10497792;28;19919;-78
2023/12/27 06:56:12;;;;;;;15.82;8.27;;;;;;;4.01;100.00;101415.19;10498274;28;20124;-78
2023/12/27 07:01:14;;;;;;;14.07;7.53;;;;;;;4.04;100.00;101397.31;10513579;28;20123;-77
2023/12/27 07:06:15;;;;;;;;;;;;;;;4.09;100.00;101401.19;10487509;28;20036;-77
2023/12/27 07:11:19;;;;;;;13.95;8.23;;;;;;;4.16;100.00;101399.09;10496838;28;19925;-79
2023/12/27 07:16:20;;;;;;;16.30;8.77;;;;;;;4.23;100.00;101397.16;10511490;28;20127;-78
2023/12/27 07:21:20;;;;;;;17.90;10.20;;;;;;;4.29;100.00;101396.72;10508552;28;20044;-78
2023/12/27 07:26:22;;;;;;;26.10;8.40;;;;;;;4.38;100.00;101396.59;10510538;28;20507;-77
2023/12/27 07:31:22;;;;;;;16.50;11.07;;;;;;;4.45;100.00;101400.56;10509940;28;20029;-78
2023/12/27 07:36:23;;;;;;;21.63;11.85;;;;;;;4.52;100.00;101397.69;10499379;28;20056;-78
2023/12/27 07:41:23;;;;;;;16.55;9.73;;;;;;;4.58;100.00;101394.69;10495075;28;20598;-78
2023/12/27 07:46:24;;;;;;;17.95;10.40;;;;;;;4.59;100.00;101383.53;10496978;28;20135;-77
2023/12/27 07:51:24;;;;;;;22.58;11.02;;;;;;;4.67;100.00;101390.25;10508415;28;20568;-78
2023/12/27 07:56:25;;;;;;;16.42;10.68;;;;;;;4.68;100.00;101389.47;10507348;28;20478;-77
2023/12/27 08:01:31;;;;;;;21.63;11.05;;;;;;;4.73;100.00;101393.31;10499167;28;20131;-77
2023/12/27 08:06:31;;;;;;;23.67;11.95;;;;;;;4.76;100.00;101408.22;10480717;28;20044;-78
2023/12/27 08:11:33;;;;;;;19.48;12.45;;;;;;;4.79;100.00;101408.44;10484146;28;20036;-79
2023/12/27 08:16:34;;;;;;;14.05;7.07;;;;;;;4.85;100.00;101394.31;10482529;28;20040;-79
2023/12/27 08:21:35;;;;;;;13.23;9.30;;;;;;;4.96;100.00;101376.97;10439358;28;20041;-80
2023/12/27 08:26:35;;;;;;;10.10;7.57;;;;;;;5.07;100.00;101397.66;10445921;28;20044;-79
2023/12/27 08:31:36;;;;;;;11.82;6.63;;;;;;;5.07;100.00;101379.50;10481977;28;20036;-80
2023/12/27 08:36:37;;;;;;;10.50;7.30;;;;;;;5.11;100.00;101374.69;10442375;28;20095;-77
2023/12/27 08:41:37;;;;;;;17.52;9.05;;;;;;;5.20;100.00;101371.88;10445503;28;20127;-82
2023/12/27 08:46:39;;;;;;;15.00;8.13;;;;;;;5.33;100.00;101363.38;10444727;28;20080;-83
2023/12/27 08:51:39;;;;;;;19.15;7.88;;;;;;;5.40;100.00;101357.84;10440572;28;20427;-82
2023/12/27 08:56:40;;;;;;;17.52;8.77;;;;;;;5.40;100.00;101346.56;10440704;28;20128;-82
2023/12/27 09:01:40;;;;;;;12.88;7.78;;;;;;;5.39;100.00;101336.97;10499103;28;20120;-83
2023/12/27 09:06:41;;;;;;;13.43;8.52;;;;;;;5.41;100.00;101341.50;10502813;28;20119;-83
2023/12/27 09:11:41;;;;;;;14.10;8.20;;;;;;;5.51;100.00;101335.28;10498254;28;20043;-83
2023/12/27 09:16:42;;;;;;;17.65;8.55;;;;;;;5.43;100.00;101324.34;10500828;28;20122;-83
2023/12/27 09:21:46;;;;;;;10.75;6.95;;;;;;;5.42;100.00;101308.63;10456145;28;20082;-79
2023/12/27 09:26:49;;;;;;;20.30;8.13;;;;;;;5.49;100.00;101304.81;10449973;28;20044;-79
2023/12/27 09:31:50;;;;;;;11.05;5.28;;;;;;;5.54;100.00;101313.88;10430378;28;20381;-79
2023/12/27 09:36:50;;;;;;;9.77;6.32;;;;;;;5.70;100.00;101331.47;10430125;28;20116;-82
2023/12/27 09:41:51;;;;;;;11.98;6.82;;;;;;;5.78;100.00;101314.78;10425011;28;20492;-80
2023/12/27 09:46:51;;;;;;;10.00;5.28;;;;;;;5.92;100.00;101292.44;10437426;28;20055;-81
2023/12/27 09:51:52;;;;;;;11.38;6.32;;;;;;;6.00;100.00;101301.72;10400096;28;20122;-84
2023/12/27 09:56:53;;;;;;;7.33;4.33;;;;;;;6.06;100.00;101302.97;10417763;28;20163;-81
2023/12/27 10:01:59;;;;;;;7.82;4.38;;;;;;;6.17;100.00;101291.66;10424883;28;20041;-84
2023/12/27 10:06:59;;;;;;;6.35;3.47;;;;;;;6.23;100.00;101278.16;10453729;28;20049;-79
2023/12/27 10:12:00;;;;;;;10.88;5.32;;;;;;;6.33;100.00;101296.25;10409346;28;20037;-79
2023/12/27 10:17:02;;;;;;;11.55;6.32;;;;;;;6.51;100.00;101281.06;10439103;28;20064;-79
2023/12/27 10:22:03;;;;;;;6.03;3.03;;;;;;;6.69;100.00;101268.44;10422110;28;20072;-79
2023/12/27 10:27:04;;;;;;;7.88;3.78;;;;;;;6.82;100.00;101253.66;10439262;28;20132;-78
2023/12/27 10:32:07;;;;;;;4.97;3.75;;;;;;;6.99;100.00;101254.84;10421929;28;20472;-79
2023/12/27 10:37:11;;;;;;;5.97;3.63;;;;;;;7.05;100.00;101245.72;10438829;28;20045;-79
2023/12/27 10:42:16;;;;;;;4.15;3.45;;;;;;;7.15;100.00;101230.75;10458714;28;20052;-79
2023/12/27 10:47:20;;;;;;;4.50;3.55;;;;;;;7.28;100.00;101235.09;10474117;28;20499;-79
2023/12/27 10:52:21;;;;;;;6.28;2.67;;;;;;;7.35;100.00;101227.78;10495452;28;20056;-79
2023/12/27 10:57:22;;;;;;;5.93;2.20;;;;;;;7.48;100.00;101216.47;10515800;28;20099;-81
2023/12/27 11:02:23;;;;;;;7.70;1.30;;;;;;;7.57;100.00;101197.03;10496091;28;20032;-82
2023/12/27 11:07:24;;;;;;;3.25;1.50;;;;;;;7.62;100.00;101165.25;10472159;28;20049;-82
2023/12/27 11:12:24;;;;;;;7.53;1.52;;;;;;;7.78;100.00;101166.25;10494959;28;20103;-80
2023/12/27 11:17:27;;;;;;;13.05;2.00;;;;;;;7.81;100.00;101162.94;10491964;28;20204;-79
2023/12/27 11:22:28;;;;;;;1.90;0.70;;;;;;;7.82;100.00;101125.66;10469878;28;20586;-79
2023/12/27 11:27:28;;;;;;;3.38;1.67;;;;;;;7.97;100.00;101099.63;10510330;28;20064;-79
2023/12/27 11:32:30;;;;;;;14.13;1.38;;;;;;;8.12;100.00;101084.06;10479530;28;20131;-79
2023/12/27 11:37:33;;;;;;;3.10;1.23;;;;;;;8.14;100.00;101039.00;10503096;28;20133;-80
2023/12/27 11:42:34;;;;;;;3.03;1.52;;;;;;;8.30;100.00;101004.34;10486895;28;20507;-80
2023/12/27 11:47:35;;;;;;;3.72;1.20;;;;;;;8.42;100.00;101003.25;10482653;28;20060;-80
2023/12/27 11:52:42;;;;;;;2.60;1.15;;;;;;;8.54;100.00;100977.00;10451086;28;20037;-79
2023/12/27 11:57:42;;;;;;;8.80;2.53;;;;;;;8.62;100.00;100955.78;10510871;28;20345;-79
2023/12/27 12:02:48;;;;;;;5.60;1.80;;;;;;;8.57;100.00;100938.97;10509360;28;20040;-79
2023/12/27 12:08:12;;;;;;;3.42;1.60;;;;;;;8.54;100.00;100924.84;10485763;28;20488;-80
2023/12/27 12:13:12;;;;;;;6.20;1.98;;;;;;;8.56;100.00;100923.22;10500629;28;20044;-80
2023/12/27 12:18:13;;;;;;;4.10;2.90;;;;;;;8.59;100.00;100926.91;10509877;28;20481;-80
2023/12/27 12:23:13;;;;;;;5.20;2.17;;;;;;;8.58;100.00;100918.97;10484065;28;20036;-80
2023/12/27 12:28:14;;;;;;;4.15;2.47;;;;;;;8.68;100.00;100920.41;10483733;28;20127;-79
2023/12/27 12:33:14;;;;;;;5.55;2.47;;;;;;;8.74;100.00;100908.59;10505650;28;20119;-80
2023/12/27 12:38:17;;;;;;;3.78;1.98;;;;;;;8.80;100.00;100897.59;10505897;28;20040;-80
2023/12/27 12:43:18;;;;;;;6.20;2.45;;;;;;;8.97;100.00;100893.28;10487649;28;20039;-80
2023/12/27 12:48:19;;;;;;;7.00;2.47;;;;;;;9.10;100.00;100887.94;10489870;28;20061;-80
2023/12/27 12:53:20;;;;;;;4.38;1.67;;;;;;;9.21;100.00;100885.91;10482381;28;20785;-80
2023/12/27 12:58:20;;;;;;;4.53;3.03;;;;;;;9.10;100.00;100884.44;10508063;28;20048;-80
2023/12/27 13:03:21;;;;;;;4.40;2.30;;;;;;;9.08;100.00;100867.78;10481844;28;20508;-81
2023/12/27 13:08:24;;;;;;;5.65;2.13;;;;;;;8.88;100.00;100856.25;10498212;28;20052;-80
2023/12/27 13:13:25;;;;;;;4.90;2.63;;;;;;;8.76;100.00;100860.00;10506974;28;20044;-79
2023/12/27 13:18:25;;;;;;;5.22;2.90;;;;;;;8.68;100.00;100844.75;10500696;28;20036;-79
2023/12/27 13:23:26;;;;;;;5.40;2.95;;;;;;;8.56;100.00;100855.38;10504558;28;20483;-80
2023/12/27 13:28:26;;;;;;;4.85;2.05;;;;;;;8.42;100.00;100846.78;10490169;28;20173;-80
2023/12/27 13:33:27;;;;;;;3.15;1.67;;;;;;;8.35;100.00;100843.81;10500028;28;20132;-80
2023/12/27 13:38:28;;;;;;;9.00;2.72;;;;;;;8.25;100.00;100838.91;10498467;28;20041;-79
2023/12/27 13:43:28;;;;;;;6.00;3.25;;;;;;;8.17;100.00;100837.56;10488125;28;20042;-79
2023/12/27 13:48:29;;;;;;;6.30;2.60;;;;;;;8.16;100.00;100820.13;10491338;28;20419;-79
2023/12/27 13:53:29;;;;;;;4.22;2.08;;;;;;;8.17;100.00;100822.78;10495857;28;20079;-78
2023/12/27 13:58:31;;;;;;;6.90;2.25;;;;;;;8.08;100.00;100812.75;10461705;28;20040;-78
2023/12/27 14:03:32;;;;;;;16.48;2.97;;;;;;;7.98;100.00;100800.03;10508058;28;20114;-79
2023/12/27 14:08:32;;;;;;;5.57;2.43;;;;;;;7.84;100.00;100806.16;10505143;28;20080;-80
2023/12/27 14:13:33;;;;;;;4.57;1.50;;;;;;;7.80;100.00;100794.63;10495130;28;20028;-79
2023/12/27 14:18:33;;;;;;;6.47;2.17;;;;;;;7.72;100.00;100798.50;10499751;28;20120;-79
2023/12/27 14:23:34;;;;;;;5.15;1.60;;;;;;;7.71;100.00;100792.41;10500078;28;20067;-79
2023/12/27 14:28:36;;;;;;;7.97;2.78;;;;;;;7.66;100.00;100783.44;10505250;28;20553;-79
2023/12/27 14:33:36;;;;;;;4.78;2.70;;;;;;;7.66;100.00;100783.44;10496169;28;20097;-79
2023/12/27 14:38:38;;;;;;;6.35;2.15;;;;;;;7.49;100.00;100766.81;10510531;28;20060;-79
2023/12/27 14:43:39;;;;;;;2.78;1.88;;;;;;;7.48;100.00;100778.94;10505940;28;20040;-80
2023/12/27 14:48:39;;;;;;;6.85;2.25;;;;;;;7.46;100.00;100766.63;10504314;28;20448;-80
2023/12/27 14:53:40;;;;;;;3.70;1.85;;;;;;;7.41;100.00;100755.94;10486551;28;20115;-80
2023/12/27 14:58:41;;;;;;;5.63;2.15;;;;;;;7.38;100.00;100758.38;10505762;28;20186;-79
2023/12/27 15:03:42;;;;;;;3.47;1.75;;;;;;;7.29;100.00;100753.50;10491964;28;20051;-79
2023/12/27 15:08:44;;;;;;;11.48;3.55;;;;;;;7.23;100.00;100749.66;10488436;28;20384;-79
2023/12/27 15:13:44;;;;;;;5.03;2.50;;;;;;;7.02;100.00;100747.56;10514601;28;20036;-80
2023/12/27 15:18:45;;;;;;;6.22;2.75;;;;;;;6.94;100.00;100744.50;10478110;28;20472;-79
2023/12/27 15:23:45;;;;;;;17.60;4.18;;;;;;;6.78;100.00;100744.38;10478531;28;20079;-79
2023/12/27 15:28:47;;;;;;;5.05;2.58;;;;;;;6.69;100.00;100735.19;10490820;27;20040;-79
2023/12/27 15:33:47;;;;;;;7.97;3.55;;;;;;;6.65;100.00;100732.34;10503332;28;20464;-80
2023/12/27 15:38:55;;;;;;;18.33;4.13;;;;;;;6.49;100.00;100722.69;10485356;28;20051;-81
2023/12/27 15:43:58;;;;;;;8.32;2.97;;;;;;;6.37;100.00;100715.03;10481261;28;20043;-79
2023/12/27 15:48:58;;;;;;;4.50;3.05;;;;;;;6.33;100.00;100711.31;10490639;28;20036;-79
2023/12/27 15:53:59;;;;;;;6.53;2.33;;;;;;;6.24;100.00;100710.75;10502444;28;20123;-80
2023/12/27 15:59:00;;;;;;;3.95;2.22;;;;;;;6.13;100.00;100694.50;10474893;28;20078;-80
2023/12/27 16:04:01;;;;;;;7.97;3.30;;;;;;;6.05;100.00;100694.00;10502165;27;20476;-79
2023/12/27 16:09:02;;;;;;;5.47;1.98;;;;;;;6.04;100.00;100676.63;10501863;28;20460;-79
2023/12/27 16:14:02;;;;;;;5.90;2.58;;;;;;;6.09;100.00;100667.41;10480115;28;20399;-79
2023/12/27 16:19:05;;;;;;;4.35;2.50;;;;;;;5.98;100.00;100655.41;10504781;28;20099;-79
2023/12/27 16:24:05;;;;;;;10.73;2.38;;;;;;;6.00;100.00;100646.97;10472734;28;20041;-78
2023/12/27 16:29:06;;;;;;;8.38;2.67;;;;;;;5.96;100.00;100647.53;10504417;28;20043;-80
2023/12/27 16:34:06;;;;;;;7.28;2.78;;;;;;;5.90;100.00;100641.03;10508467;28;20115;-79
2023/12/27 16:39:08;;;;;;;7.38;3.33;;;;;;;5.76;100.00;100628.09;10505787;28;20134;-79
2023/12/27 16:44:09;;;;;;;7.57;3.47;;;;;;;5.68;100.00;100612.03;10485003;28;20443;-79
2023/12/27 16:49:09;;;;;;;6.28;3.45;;;;;;;5.64;100.00;100599.66;10485802;28;20131;-80
2023/12/27 16:54:10;;;;;;;11.68;3.53;;;;;;;5.58;100.00;100600.16;10498325;28;20142;-80
2023/12/27 16:59:10;;;;;;;5.70;2.80;;;;;;;5.50;100.00;100593.56;10501394;28;20131;-79
2023/12/27 17:04:11;;;;;;;6.43;2.92;;;;;;;5.55;100.00;100562.72;10498931;28;20080;-79
2023/12/27 17:09:12;;;;;;;8.23;2.58;;;;;;;5.61;100.00;100567.41;10475467;28;20048;-79
2023/12/27 17:14:13;;;;;;;4.00;2.50;;;;;;;5.57;100.00;100549.03;10483310;28;20056;-79
2023/12/27 17:19:13;;;;;;;7.53;2.65;;;;;;;5.72;100.00;100538.72;10477006;28;20119;-79
2023/12/27 17:24:14;;;;;;;7.32;2.70;;;;;;;5.74;100.00;100523.22;10493334;28;20081;-79
2023/12/27 17:29:14;;;;;;;9.48;3.33;;;;;;;5.71;100.00;100516.16;10502275;28;20488;-79
2023/12/27 17:34:15;;;;;;;7.38;2.50;;;;;;;5.85;100.00;100503.13;10509224;28;20189;-79
2023/12/27 17:39:16;;;;;;;4.18;2.17;;;;;;;5.90;100.00;100493.91;10489108;28;20115;-79
2023/12/27 17:44:16;;;;;;;7.97;4.38;;;;;;;5.90;100.00;100486.09;10466368;28;20373;-79
2023/12/27 17:49:17;;;;;;;4.22;1.80;;;;;;;6.11;100.00;100464.84;10502920;28;20840;-78
2023/12/27 17:54:18;;;;;;;4.97;3.15;;;;;;;6.11;100.00;100438.88;10499632;28;20044;-78
2023/12/27 17:59:19;;;;;;;4.82;1.80;;;;;;;6.11;100.00;100434.53;10497991;28;20540;-78
2023/12/27 18:04:22;;;;;;;4.78;2.10;;;;;;;5.98;100.00;100447.59;10486255;28;20486;-79
2023/12/27 18:09:25;;;;;;;6.50;2.40;;;;;;;5.96;100.00;100429.31;10511769;28;20511;-79
2023/12/27 18:14:25;;;;;;;4.68;2.35;;;;;;;6.03;100.00;100417.63;10494243;28;20507;-79
2023/12/27 18:19:26;;;;;;;7.30;1.88;;;;;;;5.88;100.00;100425.38;10488020;28;20074;-78
2023/12/27 18:24:31;;;;;;;5.78;2.35;;;;;;;5.96;100.00;100436.22;10503590;28;20040;-78
2023/12/27 18:29:36;;;;;;;4.45;2.20;;;;;;;6.11;100.00;100423.28;10506889;28;20399;-79
2023/12/27 18:34:38;;;;;;;3.75;1.30;;;;;;;6.04;100.00;100421.13;10493622;28;20041;-78
2023/12/27 18:39:38;;;;;;;;;;;;;;;6.01;100.00;100427.03;10485257;28;20445;-79
2023/12/27 18:44:42;;;;;;;2.88;1.73;;;;;;;6.02;100.00;100450.50;10496520;28;19920;-79
2023/12/27 18:49:44;;;;;;;2.40;1.40;;;;;;;6.14;100.00;100471.09;10503100;28;20149;-79
2023/12/27 18:54:44;;;;;;;2.45;1.20;;;;;;;6.18;100.00;100474.78;10507754;28;20041;-80
2023/12/27 18:59:46;;;;;;;2.70;1.48;;;;;;;6.43;100.00;100499.63;10498970;28;20119;-79
2023/12/27 19:04:47;;;;;;;1.58;1.10;;;;;;;6.53;100.00;100501.97;10494193;28;20174;-80
2023/12/27 19:09:48;;;;;;;5.72;2.15;;;;;;;6.69;100.00;100502.84;10508064;28;20053;-79
2023/12/27 19:14:48;;;;;;;3.70;1.85;;;;;;;7.08;100.00;100505.91;10505802;28;20052;-78
2023/12/27 19:19:49;;;;;;;4.95;1.85;;;;;;;7.27;100.00;100530.38;10514221;28;20494;-79
2023/12/27 19:24:50;;;;;;;3.72;1.75;;;;;;;7.33;100.00;100528.97;10508123;28;20167;-79
2023/12/27 19:29:50;;;;;;;5.10;1.45;;;;;;;7.39;100.00;100532.72;10487337;28;20033;-78
2023/12/27 19:34:51;;;;;;;2.53;1.33;;;;;;;7.49;100.00;100528.13;10505495;28;20484;-78
2023/12/27 19:39:51;;;;;;;2.75;1.70;;;;;;;7.26;100.00;100500.81;10493532;28;20036;-80
2023/12/27 19:44:52;;;;;;;3.95;1.38;;;;;;;7.12;100.00;100487.06;10499060;28;20178;-79
2023/12/27 19:49:52;;;;;;;7.00;1.60;;;;;;;7.31;100.00;100493.28;10510375;28;20170;-78
2023/12/27 19:54:53;;;;;;;3.50;1.45;;;;;;;7.13;100.00;100477.53;10504342;28;20120;-80
2023/12/27 19:59:53;;;;;;;4.18;1.30;;;;;;;7.15;100.00;100495.03;10503503;28;20135;-79
2023/12/27 20:04:54;;;;;;;2.15;1.00;;;;;;;7.37;100.00;100505.72;10486144;28;20131;-77
2023/12/27 20:09:55;;;;;;;3.58;1.05;;;;;;;7.43;100.00;100519.06;10504332;28;20123;-79
2023/12/27 20:14:55;;;;;;;2.28;1.55;;;;;;;7.52;100.00;100530.00;10472087;28;20126;-77
2023/12/27 20:19:56;;;;;;;2.00;1.40;;;;;;;7.74;100.00;100546.78;10499753;28;20039;-80
2023/12/27 20:24:56;;;;;;;2.85;1.25;;;;;;;7.91;100.00;100555.53;10507783;28;20063;-79
2023/12/27 20:29:57;;;;;;;2.50;1.40;;;;;;;8.10;100.00;100546.06;10491736;28;20139;-79
2023/12/27 20:34:57;;;;;;;3.78;1.30;;;;;;;8.17;100.00;100533.41;10488706;28;20131;-79
2023/12/27 20:40:01;;;;;;;3.15;1.50;;;;;;;8.17;100.00;100551.66;10509684;28;20535;-79
2023/12/27 20:45:01;;;;;;;4.43;2.65;;;;;;;8.29;100.00;100566.16;10506221;28;20479;-78
2023/12/27 20:50:03;;;;;;;10.85;2.03;;;;;;;8.37;100.00;100567.44;10482674;28;20093;-80
2023/12/27 20:55:04;;;;;;;4.70;1.17;;;;;;;8.38;100.00;100572.75;10503250;28;20032;-79
2023/12/27 21:00:05;;;;;;;3.03;1.23;;;;;;;8.50;100.00;100564.69;10496009;28;20306;-80
2023/12/27 21:05:06;;;;;;;2.00;1.23;;;;;;;8.42;100.00;100563.38;10506895;28;20119;-80
2023/12/27 21:10:07;;;;;;;2.05;1.08;;;;;;;8.68;100.00;100576.88;10501080;28;20044;-79
2023/12/27 21:15:08;;;;;;;4.10;1.80;;;;;;;8.71;100.00;100579.66;10504065;28;20086;-79
2023/12/27 21:20:10;;;;;;;2.88;1.38;;;;;;;8.69;100.00;100588.22;10474144;28;20453;-78
2023/12/27 21:25:10;;;;;;;3.00;1.50;;;;;;;8.08;100.00;100548.56;10494952;28;20051;-79
2023/12/27 21:30:11;;;;;;;3.03;1.23;;;;;;;8.04;100.00;100549.22;10506822;28;20442;-79
2023/12/27 21:35:12;;;;;;;4.10;1.63;;;;;;;8.12;100.00;100550.53;10503008;28;20044;-79
2023/12/27 21:40:13;;;;;;;2.72;1.45;;;;;;;8.23;100.00;100558.94;10495278;28;20519;-79
2023/12/27 21:45:15;;;;;;;3.20;1.80;;;;;;;8.30;100.00;100567.94;10503438;28;20138;-79
2023/12/27 21:50:16;;;;;;;;;;;;;;;8.42;100.00;100555.53;10479189;28;20471;-79
2023/12/27 21:55:16;;;;;;;2.70;1.50;;;;;;;8.44;100.00;100555.66;10498693;28;19927;-79
2023/12/27 22:00:20;;;;;;;2.83;1.80;;;;;;;8.49;100.00;100562.91;10494442;28;20131;-78
2023/12/27 22:05:21;;;;;;;1.80;1.25;;;;;;;8.58;100.00;100556.34;10495240;28;20032;-79
2023/12/27 22:10:22;;;;;;;2.78;1.58;;;;;;;8.56;100.00;100555.38;10503228;28;20831;-79
2023/12/27 22:15:22;;;;;;;4.30;1.52;;;;;;;8.71;100.00;100568.34;10500980;28;20119;-79
2023/12/27 22:20:23;;;;;;;2.97;1.80;;;;;;;8.77;100.00;100581.69;10491407;28;20505;-80
2023/12/27 22:25:23;;;;;;;4.20;1.65;;;;;;;8.93;100.00;100580.72;10492900;28;20126;-79
2023/12/27 22:30:24;;;;;;;3.80;1.85;;;;;;;8.99;100.00;100567.97;10508675;28;20063;-81
2023/12/27 22:35:24;;;;;;;2.33;1.55;;;;;;;9.05;100.00;100570.88;10494569;28;20097;-78
2023/12/27 22:40:25;;;;;;;3.65;2.22;;;;;;;9.07;100.00;100561.41;10500214;28;20056;-79
2023/12/27 22:45:25;;;;;;;3.63;1.65;;;;;;;9.19;100.00;100578.50;10510844;28;20909;-80
2023/12/27 22:50:26;;;;;;;3.35;1.10;;;;;;;9.14;100.00;100585.22;10516523;28;20044;-80
2023/12/27 22:55:26;;;;;;;7.30;1.45;;;;;;;9.11;100.00;100584.25;10504755;28;20424;-79